Cam Ranh Airport
VVCR : now visible

Airfield :











YOU CAN JOIN US ON...

 
LOGIN :

Register | Disclaimer

   EN    FR    IT 

 









Legend :    VFR   Marginal VFR   IFR   Intensive IFR   Very Intensive IFR
Visi :
Ceiling :
>= 8 km
>= 3000ft
5 to 8 km
1000 to 3000 ft
1500m to 5 km
500 to 1000 ft
800 to 1500m
200 to 500 ft
< 800m
< 200 ft
Symbols :   Thunderstorms  Fog  Heavy snow  Heavy precipitations  Wind > 20 kt






- Airport Elevation : 40 ft
- IATA code : CXR


VVCR - Cam Ranh

CURRENT METAR :
  • 191230Z 02005KT 9999 -RA FEW013 BKN050 25/22 Q1014 NOSIG

EXPIRED METARs :
  • 191200Z 01006KT 9999 FEW013 BKN050 25/22 Q1014 NOSIG
  • 191130Z 02007KT 9999 FEW013 BKN050 26/22 Q1014 NOSIG
  • 191100Z 02009KT 9999 FEW013 BKN050 25/22 Q1013 NOSIG
  • 191030Z 03005KT 9999 FEW013 BKN050 25/22 Q1013 NOSIG
  • 191000Z 01005KT 9999 FEW013 BKN050 24/22 Q1013 NOSIG

TAF TAF VVCR
Valid from the 19 at 12:00 until the 20 at 12:00 UTC


191100Z 1912/2012 05006KT 9999 SCT015



MET'MAP, your aeronautical weather chart ! - Copyright ORBIFLY December 2007 - Disclaimer

ORBIFLY MET'MAP TEAM :

Programming & Development : Alexandra Zaïnal
Concept & Development : Baudouin d'Aumeries
Co-Development & Prog : Marc-Olivier Méhu
Technical & hardware support : Manuel Goepfert

Contact : metmap@orbifly.com




SOURCES & CREDITS :

   NOAA       Earth
Advisory